Time;durP1;ratioP1;P1;durP2;ratioP2;P2;SDS_P1;SDS_P2;PMS_P1;PMS_P2;Temp;Humidity;BMP_temperature;BMP_pressure;BME280_temperature;BME280_humidity;BME280_pressure;Samples;Min_cycle;Max_cycle;Signal;HPM_P1;HPM_P2
2023/10/12 00:01:39;;;;;;;23.63;12.65;;;16.90;99.90;;;;;;5050779;28;20387;-75
2023/10/12 00:04:11;;;;;;;30.73;13.15;;;17.00;99.90;;;;;;5051550;28;20083;-75
2023/10/12 00:06:40;;;;;;;24.95;11.95;;;17.10;99.90;;;;;;5055538;28;20031;-75
2023/10/12 00:09:20;;;;;;;28.65;12.40;;;17.00;99.90;;;;;;5047875;28;20031;-76
2023/10/12 00:12:01;;;;;;;27.38;12.98;;;17.00;99.90;;;;;;5047708;28;20029;-75
2023/10/12 00:14:32;;;;;;;23.33;12.35;;;17.00;99.90;;;;;;5047643;28;20021;-76
2023/10/12 00:16:58;;;;;;;33.15;11.52;;;17.00;99.90;;;;;;5048771;28;20540;-77
2023/10/12 00:19:23;;;;;;;22.98;12.05;;;17.00;99.90;;;;;;5055741;28;20025;-75
2023/10/12 00:22:09;;;;;;;24.35;11.45;;;17.00;99.90;;;;;;5047930;28;20691;-75
2023/10/12 00:24:35;;;;;;;25.05;12.00;;;16.90;99.90;;;;;;5050610;28;20106;-75
2023/10/12 00:27:02;;;;;;;20.60;11.30;;;16.90;99.90;;;;;;5047952;28;20036;-76
2023/10/12 00:29:28;;;;;;;26.90;12.80;;;16.90;99.90;;;;;;5052376;28;20045;-76
2023/10/12 00:31:57;;;;;;;20.15;11.07;;;16.80;99.90;;;;;;5051285;28;20028;-75
2023/10/12 00:34:23;;;;;;;22.67;11.55;;;16.80;99.90;;;;;;5052730;28;20025;-75
2023/10/12 00:36:52;;;;;;;20.48;11.10;;;16.80;99.90;;;;;;5049526;28;20395;-75
2023/10/12 00:39:20;;;;;;;25.85;12.07;;;16.80;99.90;;;;;;5048049;28;20033;-75
2023/10/12 00:41:46;;;;;;;26.70;12.27;;;16.80;99.90;;;;;;5048603;28;20461;-75
2023/10/12 00:44:12;;;;;;;24.75;11.50;;;16.70;99.90;;;;;;5047052;28;20111;-75
2023/10/12 00:49:26;;;;;;;27.13;12.65;;;16.60;99.90;;;;;;5048366;28;20029;-76
2023/10/12 00:52:07;;;;;;;24.83;12.57;;;16.50;99.90;;;;;;5050314;28;20025;-77
2023/10/12 00:57:05;;;;;;;24.27;12.80;;;16.40;99.90;;;;;;5054324;28;20036;-76
2023/10/12 00:59:34;;;;;;;19.73;12.27;;;16.30;99.90;;;;;;5048972;28;20126;-75
2023/10/12 01:02:11;;;;;;;22.85;12.18;;;16.30;99.90;;;;;;5053330;28;20032;-75
2023/10/12 01:04:41;;;;;;;19.95;11.98;;;16.30;99.90;;;;;;5051251;28;20029;-77
2023/10/12 01:07:10;;;;;;;21.33;11.20;;;16.30;99.90;;;;;;5049975;28;20024;-76
2023/10/12 01:09:39;;;;;;;23.65;12.43;;;16.30;99.90;;;;;;5049242;28;20040;-75
2023/10/12 01:12:14;;;;;;;36.53;12.30;;;16.30;99.90;;;;;;5057674;28;20067;-75
2023/10/12 01:14:48;;;;;;;26.00;12.07;;;16.30;99.90;;;;;;5054443;28;20035;-76
2023/10/12 01:17:24;;;;;;;20.40;10.77;;;16.40;99.90;;;;;;5054167;28;20021;-77
2023/10/12 01:19:51;;;;;;;23.10;11.75;;;16.40;99.90;;;;;;5054213;28;20067;-75
2023/10/12 01:22:25;;;;;;;23.48;11.75;;;16.30;99.90;;;;;;5055508;28;20039;-76
2023/10/12 01:27:22;;;;;;;20.42;11.95;;;16.40;99.90;;;;;;5053577;28;20036;-74
2023/10/12 01:29:48;;;;;;;24.05;12.13;;;16.10;99.90;;;;;;5052182;28;20033;-75
2023/10/12 01:34:53;;;;;;;22.38;11.15;;;16.00;99.90;;;;;;5054178;28;20128;-74
2023/10/12 01:39:57;;;;;;;19.80;10.65;;;16.10;99.90;;;;;;5054248;28;20032;-75
2023/10/12 01:42:49;;;;;;;20.55;11.48;;;15.80;99.90;;;;;;5052826;28;20032;-75
2023/10/12 01:46:08;;;;;;;23.42;10.82;;;15.80;99.90;;;;;;5052030;28;20041;-76
2023/10/12 01:48:16;;;;;;;19.00;11.50;;;15.80;99.90;;;;;;5045982;28;20044;-76
2023/10/12 01:50:42;;;;;;;22.48;11.30;;;15.80;99.90;;;;;;5051620;28;20041;-75
2023/10/12 01:55:51;;;;;;;23.55;12.05;;;15.70;99.90;;;;;;5053189;28;20060;-75
2023/10/12 01:58:18;;;;;;;18.67;10.77;;;15.80;99.90;;;;;;5052849;28;20051;-75
2023/10/12 02:00:52;;;;;;;22.70;12.20;;;15.80;99.90;;;;;;5050333;28;20428;-75
2023/10/12 02:05:59;;;;;;;21.03;9.80;;;15.90;99.90;;;;;;5060434;28;20041;-75
2023/10/12 02:08:45;;;;;;;23.52;11.23;;;15.90;99.90;;;;;;5051029;28;20036;-75
2023/10/12 02:11:26;;;;;;;23.40;11.55;;;15.90;99.90;;;;;;5056244;28;20098;-76
2023/10/12 02:13:54;;;;;;;19.17;10.75;;;16.00;99.90;;;;;;5052237;28;20032;-75
2023/10/12 02:16:25;;;;;;;24.70;11.77;;;16.10;99.90;;;;;;5050479;28;20017;-75
2023/10/12 02:18:54;;;;;;;20.55;10.65;;;16.10;99.90;;;;;;5050583;28;20479;-76
2023/10/12 02:21:21;;;;;;;23.17;10.80;;;16.10;99.90;;;;;;5052697;28;20040;-75
2023/10/12 02:26:52;;;;;;;22.40;10.90;;;16.20;99.90;;;;;;5051290;28;20044;-75
2023/10/12 02:29:18;;;;;;;18.38;10.18;;;16.20;99.90;;;;;;5055929;28;20391;-76
2023/10/12 02:34:25;;;;;;;21.90;11.98;;;16.20;99.90;;;;;;5049372;28;20128;-75
2023/10/12 02:39:30;;;;;;;20.15;10.55;;;16.20;99.90;;;;;;5055578;28;19908;-75
2023/10/12 02:42:18;;;;;;;20.55;10.75;;;16.10;99.90;;;;;;5052594;28;20025;-75
2023/10/12 02:47:22;;;;;;;21.92;10.07;;;16.00;99.90;;;;;;5048919;28;20037;-75
2023/10/12 02:50:01;;;;;;;23.02;11.20;;;16.00;99.90;;;;;;5050226;28;20033;-75
2023/10/12 02:52:33;;;;;;;26.35;10.68;;;16.00;99.90;;;;;;5055720;28;20025;-76
2023/10/12 02:55:08;;;;;;;24.88;9.63;;;16.00;99.90;;;;;;5055232;28;20029;-75
2023/10/12 02:57:34;;;;;;;28.17;10.20;;;16.00;99.90;;;;;;5053313;28;20036;-75
2023/10/12 03:00:08;;;;;;;23.73;10.13;;;16.10;99.90;;;;;;5050621;28;20029;-75
2023/10/12 03:02:34;;;;;;;;;;;16.20;99.90;;;;;;5052860;28;20025;-76
2023/10/12 03:05:04;;;;;;;20.00;9.43;;;16.30;99.90;;;;;;5044270;28;20275;-76
2023/10/12 03:07:30;;;;;;;22.35;9.65;;;16.20;99.90;;;;;;5043680;28;20471;-77
2023/10/12 03:09:59;;;;;;;22.13;11.35;;;16.10;99.90;;;;;;5047058;28;20059;-75
2023/10/12 03:12:25;;;;;;;15.85;9.00;;;16.10;99.90;;;;;;5045579;28;20475;-76
2023/10/12 03:14:52;;;;;;;19.70;9.60;;;16.00;99.90;;;;;;5047975;28;20053;-76
2023/10/12 03:17:23;;;;;;;21.23;9.18;;;16.00;99.90;;;;;;5045871;28;20029;-76
2023/10/12 03:19:55;;;;;;;13.57;7.88;;;16.00;99.90;;;;;;5044998;28;20032;-76
2023/10/12 03:22:34;;;;;;;17.42;9.32;;;15.90;99.90;;;;;;5043668;28;20500;-76
2023/10/12 03:25:19;;;;;;;23.25;10.10;;;15.90;99.90;;;;;;5042057;28;20120;-76
2023/10/12 03:27:51;;;;;;;21.38;9.95;;;15.90;99.90;;;;;;5043177;28;20032;-76
2023/10/12 03:30:17;;;;;;;21.40;9.48;;;16.00;99.90;;;;;;5041912;28;20067;-80
2023/10/12 03:32:49;;;;;;;20.75;8.35;;;15.90;99.90;;;;;;5044570;28;20037;-77
2023/10/12 03:35:23;;;;;;;19.17;8.05;;;15.90;99.90;;;;;;5047168;28;20017;-75
2023/10/12 03:37:52;;;;;;;16.95;7.68;;;16.00;99.90;;;;;;5047986;28;20483;-77
2023/10/12 03:40:49;;;;;;;19.40;8.73;;;16.00;99.90;;;;;;5047172;28;20061;-76
2023/10/12 03:43:20;;;;;;;17.65;9.30;;;15.90;99.90;;;;;;5051379;28;20079;-77
2023/10/12 03:46:07;;;;;;;22.35;9.80;;;15.90;99.90;;;;;;5044532;28;20163;-78
2023/10/12 03:53:56;;;;;;;20.73;8.32;;;15.80;99.90;;;;;;5044870;28;20097;-77
2023/10/12 03:56:23;;;;;;;;;;;15.80;99.90;;;;;;5054501;28;20028;-79
2023/10/12 03:58:58;;;;;;;16.75;6.78;;;15.80;99.90;;;;;;5047929;28;20252;-77
2023/10/12 04:01:41;;;;;;;19.23;8.82;;;15.80;99.90;;;;;;5046252;28;20887;-78
2023/10/12 04:04:53;;;;;;;13.27;7.63;;;15.90;99.90;;;;;;5041927;28;20035;-76
2023/10/12 04:10:13;;;;;;;17.90;7.80;;;15.90;99.90;;;;;;5041934;28;20471;-77
2023/10/12 04:12:35;;;;;;;23.88;8.15;;;16.00;99.90;;;;;;5040516;28;20126;-76
2023/10/12 04:15:07;;;;;;;16.10;7.05;;;16.10;99.90;;;;;;5043862;28;20060;-76
2023/10/12 04:22:41;;;;;;;19.55;7.47;;;16.10;99.90;;;;;;5041455;28;21043;-75
2023/10/12 04:28:17;;;;;;;16.63;7.93;;;16.10;99.90;;;;;;5036398;28;20098;-81
2023/10/12 04:33:27;;;;;;;15.93;6.28;;;16.20;99.90;;;;;;5046252;28;20036;-77
2023/10/12 04:36:01;;;;;;;13.55;6.95;;;16.20;99.90;;;;;;5042813;28;20029;-81
2023/10/12 04:43:53;;;;;;;20.27;6.78;;;16.10;99.90;;;;;;5042215;28;20044;-76
2023/10/12 04:49:29;;;;;;;16.60;6.30;;;15.80;99.90;;;;;;5055074;28;20029;-76
2023/10/12 04:51:40;;;;;;;15.82;6.40;;;15.70;99.90;;;;;;5045321;28;20037;-78
2023/10/12 04:54:17;;;;;;;15.63;6.50;;;15.70;99.90;;;;;;5044436;28;20036;-76
2023/10/12 04:59:50;;;;;;;17.15;7.53;;;15.70;99.90;;;;;;5055168;28;20095;-75
2023/10/12 05:02:22;;;;;;;17.92;7.18;;;15.80;99.90;;;;;;5044374;28;20128;-76
2023/10/12 05:05:14;;;;;;;14.27;5.97;;;15.80;99.90;;;;;;5043119;28;20049;-76
2023/10/12 05:07:53;;;;;;;16.13;6.70;;;15.80;99.90;;;;;;5044505;28;20031;-76
2023/10/12 05:10:31;;;;;;;15.85;7.15;;;15.80;99.90;;;;;;5060123;28;20025;-77
2023/10/12 05:13:05;;;;;;;18.90;7.35;;;15.60;99.90;;;;;;5047679;28;20029;-78
2023/10/12 05:16:26;;;;;;;22.25;7.38;;;15.70;99.90;;;;;;5045512;28;20028;-76
2023/10/12 05:18:18;;;;;;;14.23;6.38;;;15.50;99.90;;;;;;5043510;28;20106;-77
2023/10/12 05:20:44;;;;;;;15.45;6.97;;;15.50;99.90;;;;;;5051365;28;20033;-81
2023/10/12 05:23:11;;;;;;;16.33;6.50;;;15.50;99.90;;;;;;5048687;28;20193;-78
2023/10/12 05:25:54;;;;;;;13.25;6.70;;;15.50;99.90;;;;;;5052387;28;20146;-77
2023/10/12 05:28:28;;;;;;;15.25;6.47;;;15.40;99.90;;;;;;5050597;28;20020;-75
2023/10/12 05:31:09;;;;;;;13.32;7.32;;;15.40;99.90;;;;;;5049261;28;20070;-76
2023/10/12 05:33:38;;;;;;;15.82;6.53;;;15.30;99.90;;;;;;5046052;28;20017;-74
2023/10/12 05:36:12;;;;;;;15.30;6.72;;;15.20;99.90;;;;;;5044497;28;20390;-75
2023/10/12 05:38:38;;;;;;;15.80;6.93;;;15.20;99.90;;;;;;5045555;28;20074;-76
2023/10/12 05:41:08;;;;;;;20.13;6.72;;;15.00;99.90;;;;;;5049179;28;20020;-75
2023/10/12 05:43:38;;;;;;;11.07;5.53;;;14.90;99.90;;;;;;5045371;28;20029;-77
2023/10/12 05:46:10;;;;;;;20.25;7.13;;;14.80;99.90;;;;;;5044833;28;20021;-79
2023/10/12 05:48:41;;;;;;;17.38;5.97;;;14.80;99.90;;;;;;5044466;28;20029;-76
2023/10/12 05:51:09;;;;;;;13.38;6.25;;;14.80;99.90;;;;;;5048874;28;20044;-76
2023/10/12 05:53:35;;;;;;;11.82;6.70;;;14.80;99.90;;;;;;5045844;28;20598;-76
2023/10/12 05:56:01;;;;;;;16.60;6.47;;;14.90;99.90;;;;;;5046524;28;20104;-81
2023/10/12 05:58:27;;;;;;;20.73;7.15;;;15.00;99.90;;;;;;5046486;28;20172;-76
2023/10/12 06:00:53;;;;;;;17.88;7.95;;;15.00;99.90;;;;;;5045684;28;20025;-75
2023/10/12 06:03:22;;;;;;;17.90;7.75;;;15.20;99.90;;;;;;5044928;28;20041;-76
2023/10/12 06:05:50;;;;;;;12.85;7.07;;;15.10;99.90;;;;;;5043763;28;20414;-75
2023/10/12 06:08:19;;;;;;;14.70;6.95;;;15.10;99.90;;;;;;5055296;28;20104;-77
2023/10/12 06:10:45;;;;;;;17.40;8.02;;;15.20;99.90;;;;;;5051174;28;20426;-76
2023/10/12 06:13:15;;;;;;;15.05;6.88;;;15.20;99.90;;;;;;5053289;28;20453;-74
2023/10/12 06:15:53;;;;;;;16.25;6.88;;;15.20;99.90;;;;;;5046092;28;20116;-75
2023/10/12 06:18:24;;;;;;;18.30;7.13;;;15.20;99.90;;;;;;5047296;28;20473;-76
2023/10/12 06:20:58;;;;;;;16.67;6.13;;;15.10;99.90;;;;;;5052806;28;20384;-76
2023/10/12 06:23:24;;;;;;;13.30;6.82;;;15.00;99.90;;;;;;5054288;28;20079;-75
2023/10/12 06:25:50;;;;;;;12.20;5.97;;;15.00;99.90;;;;;;5052308;28;20054;-75
2023/10/12 06:28:19;;;;;;;15.10;7.10;;;15.10;99.90;;;;;;5044954;28;20025;-76
2023/10/12 06:30:47;;;;;;;19.00;7.35;;;15.10;99.90;;;;;;5048987;28;20123;-77
2023/10/12 06:33:17;;;;;;;21.20;7.78;;;15.10;99.90;;;;;;5047522;28;20064;-75
2023/10/12 06:35:59;;;;;;;14.68;6.28;;;15.10;99.90;;;;;;5048910;28;20025;-76
2023/10/12 06:38:39;;;;;;;17.85;7.45;;;15.20;99.90;;;;;;5045086;28;20028;-75
2023/10/12 06:46:17;;;;;;;18.52;7.35;;;15.30;99.90;;;;;;5044207;28;20255;-76
2023/10/12 06:48:47;;;;;;;18.58;7.80;;;15.20;99.90;;;;;;5048677;28;20025;-76
2023/10/12 06:51:13;;;;;;;16.90;7.38;;;15.20;99.90;;;;;;5051387;28;21113;-76
2023/10/12 06:53:41;;;;;;;17.80;6.68;;;15.10;99.90;;;;;;5046277;28;20053;-77
2023/10/12 06:58:39;;;;;;;18.08;6.57;;;15.30;99.90;;;;;;5046227;28;20029;-76
2023/10/12 07:01:26;;;;;;;22.77;7.47;;;15.30;99.90;;;;;;5043991;28;20029;-76
2023/10/12 07:03:52;;;;;;;12.90;6.32;;;15.30;99.90;;;;;;5047000;28;20060;-75
2023/10/12 07:06:18;;;;;;;15.85;6.93;;;15.30;99.90;;;;;;5045240;28;20017;-75
2023/10/12 07:08:50;;;;;;;13.57;6.20;;;15.20;99.90;;;;;;5042402;28;20045;-75
2023/10/12 07:11:20;;;;;;;13.27;6.32;;;15.30;99.90;;;;;;5044707;28;20021;-75
2023/10/12 07:13:46;;;;;;;17.95;6.82;;;15.30;99.90;;;;;;5044182;28;20111;-75
2023/10/12 07:16:16;;;;;;;10.85;5.82;;;15.30;99.90;;;;;;5042448;28;20162;-74
2023/10/12 07:18:43;;;;;;;13.90;6.97;;;15.30;99.90;;;;;;5045061;28;20482;-74
2023/10/12 07:21:20;;;;;;;18.05;6.63;;;15.30;99.90;;;;;;5045416;28;20029;-77
2023/10/12 07:23:52;;;;;;;15.50;7.93;;;15.30;99.90;;;;;;5048378;28;20049;-73
2023/10/12 07:26:23;;;;;;;10.77;5.60;;;15.30;99.90;;;;;;5047589;28;20055;-76
2023/10/12 07:28:55;;;;;;;18.38;7.25;;;15.30;99.90;;;;;;5046898;28;20139;-77
2023/10/12 07:31:37;;;;;;;19.75;7.13;;;15.40;99.90;;;;;;5044199;28;20021;-75
2023/10/12 07:34:05;;;;;;;16.13;6.78;;;15.40;99.90;;;;;;5049445;28;20571;-76
2023/10/12 07:36:46;;;;;;;11.85;6.97;;;15.50;99.90;;;;;;5046109;28;20120;-81
2023/10/12 07:39:26;;;;;;;15.10;7.03;;;15.50;99.90;;;;;;5055663;28;20024;-76
2023/10/12 07:41:56;;;;;;;12.65;6.45;;;15.50;99.90;;;;;;5054993;28;20024;-76
2023/10/12 07:44:23;;;;;;;16.63;7.60;;;15.60;99.90;;;;;;5044409;28;20037;-76
2023/10/12 07:46:49;;;;;;;12.35;6.68;;;15.60;99.90;;;;;;5046011;28;20029;-76
2023/10/12 07:49:30;;;;;;;13.63;6.65;;;15.70;99.90;;;;;;5046142;28;20332;-76
2023/10/12 07:52:14;;;;;;;18.52;7.53;;;15.70;99.90;;;;;;5048443;28;20024;-75
2023/10/12 07:57:20;;;;;;;21.50;7.10;;;15.80;99.90;;;;;;5047399;28;20578;-76
2023/10/12 08:00:34;;;;;;;16.05;7.00;;;15.90;99.90;;;;;;5054305;28;20070;-76
2023/10/12 08:15:55;;;;;;;13.13;6.22;;;16.30;99.90;;;;;;5057739;28;20033;-75
2023/10/12 08:23:50;;;;;;;27.20;7.10;;;16.50;99.90;;;;;;5052786;28;20530;-74
2023/10/12 08:31:45;;;;;;;13.85;5.65;;;16.70;99.90;;;;;;5046572;28;20064;-76
2023/10/12 08:34:41;;;;;;;14.35;6.22;;;16.80;99.90;;;;;;5047216;28;20513;-77
2023/10/12 08:39:39;;;;;;;13.25;6.40;;;16.80;99.90;;;;;;5044013;28;20029;-75
2023/10/12 08:44:58;;;;;;;14.65;6.55;;;16.90;99.90;;;;;;5046859;28;20419;-78
2023/10/12 08:47:40;;;;;;;17.08;7.10;;;17.00;99.90;;;;;;5049047;28;20104;-78
2023/10/12 08:50:14;;;;;;;13.05;6.15;;;16.90;99.90;;;;;;5050613;28;20021;-75
2023/10/12 08:52:43;;;;;;;14.93;7.38;;;16.90;99.90;;;;;;5050317;28;20046;-77
2023/10/12 08:55:12;;;;;;;34.35;8.13;;;17.00;99.90;;;;;;5056210;28;20029;-75
2023/10/12 08:57:51;;;;;;;19.02;6.93;;;17.00;99.90;;;;;;5051392;28;20028;-77
2023/10/12 09:00:24;;;;;;;19.88;7.80;;;17.00;99.90;;;;;;5046357;28;20033;-78
2023/10/12 09:02:58;;;;;;;19.27;8.17;;;17.10;99.90;;;;;;5044809;28;20143;-77
2023/10/12 09:05:25;;;;;;;17.45;8.05;;;17.20;99.90;;;;;;5043812;28;20086;-76
2023/10/12 09:11:44;;;;;;;15.07;7.30;;;17.50;99.90;;;;;;5043663;28;20078;-76
2023/10/12 09:13:37;;;;;;;15.70;6.28;;;17.60;99.90;;;;;;5039486;28;20098;-77
2023/10/12 09:16:11;;;;;;;24.13;7.93;;;17.70;99.90;;;;;;5046223;28;20045;-77
2023/10/12 09:19:10;;;;;;;;;;;17.70;99.90;;;;;;5045943;28;20392;-75
2023/10/12 09:21:38;;;;;;;11.15;5.97;;;17.80;99.90;;;;;;5042464;28;20010;-77
2023/10/12 09:26:34;;;;;;;15.10;6.07;;;18.00;99.90;;;;;;5045619;28;20033;-76
2023/10/12 09:29:11;;;;;;;19.13;6.90;;;18.10;99.90;;;;;;5047760;28;20039;-75
2023/10/12 09:36:45;;;;;;;20.48;6.63;;;18.60;99.90;;;;;;5050935;28;20044;-76
2023/10/12 09:39:11;;;;;;;14.35;6.43;;;18.70;99.90;;;;;;5047051;28;20375;-78
2023/10/12 09:41:40;;;;;;;17.20;5.78;;;18.80;99.90;;;;;;5047337;28;20611;-76
2023/10/12 09:44:11;;;;;;;18.88;7.65;;;18.80;99.90;;;;;;5048124;28;20132;-77
2023/10/12 09:46:46;;;;;;;14.80;6.85;;;18.80;99.90;;;;;;5047090;28;20040;-75
2023/10/12 09:49:24;;;;;;;21.45;7.43;;;18.80;99.90;;;;;;5047246;28;23409;-77
2023/10/12 09:51:55;;;;;;;21.40;7.45;;;19.00;99.90;;;;;;5046340;28;20033;-78
2023/10/12 09:54:45;;;;;;;17.25;6.63;;;19.10;99.90;;;;;;5049481;28;20072;-76
2023/10/12 09:57:27;;;;;;;20.58;8.13;;;19.10;99.90;;;;;;5048112;28;20020;-77
2023/10/12 09:59:59;;;;;;;23.58;8.57;;;19.10;99.90;;;;;;5049371;28;20041;-76
2023/10/12 10:02:30;;;;;;;15.60;5.80;;;19.10;99.90;;;;;;5048522;28;20475;-75
2023/10/12 10:05:01;;;;;;;17.38;7.05;;;19.10;99.90;;;;;;5048858;28;20037;-77
2023/10/12 10:07:36;;;;;;;20.50;6.30;;;19.10;99.90;;;;;;5046240;28;20032;-77
2023/10/12 10:10:16;;;;;;;18.52;7.13;;;19.10;99.90;;;;;;5048323;28;20029;-76
2023/10/12 10:12:42;;;;;;;19.33;7.15;;;19.30;99.90;;;;;;5051651;28;20090;-76
2023/10/12 10:15:21;;;;;;;20.17;7.15;;;19.40;99.90;;;;;;5046389;28;20112;-76
2023/10/12 10:17:53;;;;;;;27.42;8.98;;;19.30;99.90;;;;;;5056015;28;20514;-77
2023/10/12 10:22:56;;;;;;;19.83;7.13;;;19.40;99.90;;;;;;5048588;28;20041;-76
2023/10/12 10:25:27;;;;;;;19.73;7.35;;;19.50;99.90;;;;;;5046099;28;20552;-77
2023/10/12 10:27:56;;;;;;;16.52;6.65;;;19.50;99.90;;;;;;5046750;28;20479;-76
2023/10/12 10:30:36;;;;;;;17.50;6.22;;;19.60;99.90;;;;;;5047275;28;20047;-76
2023/10/12 10:33:13;;;;;;;16.80;6.47;;;19.70;99.90;;;;;;5053112;28;20027;-76
2023/10/12 10:35:58;;;;;;;15.73;6.85;;;19.60;99.90;;;;;;5045168;28;20104;-76
2023/10/12 10:38:30;;;;;;;17.00;6.28;;;19.80;99.90;;;;;;5049903;28;20028;-77
2023/10/12 10:41:05;;;;;;;17.58;7.30;;;19.70;99.90;;;;;;5051800;28;20078;-75
2023/10/12 10:43:37;;;;;;;13.38;6.60;;;19.80;99.90;;;;;;5051971;28;20070;-75
2023/10/12 10:46:13;;;;;;;15.90;6.50;;;20.10;99.90;;;;;;5057300;28;20384;-74
2023/10/12 10:48:40;;;;;;;20.20;6.50;;;20.10;99.90;;;;;;5050381;28;20111;-74
2023/10/12 10:51:27;;;;;;;43.58;8.68;;;20.10;99.90;;;;;;5045604;28;20689;-75
2023/10/12 10:53:52;;;;;;;21.15;7.05;;;20.20;99.90;;;;;;5047415;28;20131;-76
2023/10/12 10:56:35;;;;;;;18.10;6.93;;;20.40;99.90;;;;;;5049609;28;20036;-77
2023/10/12 10:59:06;;;;;;;14.55;6.80;;;20.70;99.90;;;;;;5051973;28;20025;-77
2023/10/12 11:01:32;;;;;;;21.40;6.38;;;20.60;99.90;;;;;;5048789;28;20022;-77
2023/10/12 11:04:01;;;;;;;24.10;8.35;;;20.70;99.90;;;;;;5042417;28;20114;-77
2023/10/12 11:06:31;;;;;;;17.10;7.38;;;20.90;99.90;;;;;;5042996;28;20048;-77
2023/10/12 11:09:09;;;;;;;22.52;6.97;;;21.20;99.90;;;;;;5049419;28;20524;-76
2023/10/12 11:11:44;;;;;;;15.60;6.85;;;21.20;99.80;;;;;;5055621;28;20536;-76
2023/10/12 11:14:14;;;;;;;18.55;8.38;;;21.20;99.90;;;;;;5046409;28;20048;-77
2023/10/12 11:16:45;;;;;;;23.58;7.57;;;21.20;99.90;;;;;;5051834;28;20565;-78
2023/10/12 11:19:12;;;;;;;12.40;6.45;;;21.40;99.90;;;;;;5048866;28;20025;-78
2023/10/12 11:21:51;;;;;;;13.85;6.57;;;21.40;99.90;;;;;;5042196;28;20099;-77
2023/10/12 11:24:20;;;;;;;19.98;7.97;;;21.60;99.50;;;;;;5048653;28;20069;-77
2023/10/12 11:26:57;;;;;;;15.15;7.43;;;21.70;99.80;;;;;;5047993;28;20048;-77
2023/10/12 11:29:25;;;;;;;15.07;7.80;;;21.90;98.90;;;;;;5045053;28;20112;-77
2023/10/12 11:32:11;;;;;;;17.30;7.65;;;21.70;98.90;;;;;;5050190;28;20495;-77
2023/10/12 11:34:44;;;;;;;19.60;8.43;;;21.70;98.80;;;;;;5058772;28;20494;-77
2023/10/12 11:37:13;;;;;;;11.90;7.22;;;22.10;99.30;;;;;;5042976;28;20505;-78
2023/10/12 11:39:46;;;;;;;17.65;8.38;;;22.40;99.10;;;;;;5048103;28;20032;-76
2023/10/12 11:42:13;;;;;;;16.40;6.95;;;22.30;98.90;;;;;;5057902;28;20060;-77
2023/10/12 11:44:43;;;;;;;13.55;5.97;;;22.60;99.20;;;;;;5047809;28;20185;-75
2023/10/12 11:47:24;;;;;;;18.75;8.18;;;22.70;98.50;;;;;;5047380;28;20091;-75
2023/10/12 11:49:57;;;;;;;15.60;7.53;;;22.70;98.80;;;;;;5049578;28;20037;-77
2023/10/12 11:52:33;;;;;;;15.68;7.18;;;22.60;98.60;;;;;;5058663;28;20035;-74
2023/10/12 11:55:19;;;;;;;21.42;8.35;;;22.60;98.60;;;;;;5044346;28;20037;-76
2023/10/12 11:57:54;;;;;;;24.08;7.82;;;22.50;98.20;;;;;;5042373;28;20029;-79
2023/10/12 12:00:25;;;;;;;18.65;7.70;;;22.50;99.30;;;;;;5048130;28;20032;-75
2023/10/12 12:02:57;;;;;;;18.33;7.05;;;22.50;98.60;;;;;;5055882;28;20043;-75
2023/10/12 12:05:23;;;;;;;16.00;6.88;;;22.60;98.60;;;;;;5043214;28;20036;-75
2023/10/12 12:07:51;;;;;;;21.23;8.25;;;22.60;98.70;;;;;;5047381;28;20040;-76
2023/10/12 12:10:39;;;;;;;15.80;6.95;;;22.60;98.70;;;;;;5046541;28;20502;-77
2023/10/12 12:13:08;;;;;;;17.33;7.68;;;22.60;98.60;;;;;;5049396;28;20399;-76
2023/10/12 12:15:34;;;;;;;15.93;6.78;;;22.80;98.90;;;;;;5040725;28;20032;-77
2023/10/12 12:18:05;;;;;;;17.70;7.43;;;22.80;98.50;;;;;;5040171;28;20028;-76
2023/10/12 12:20:38;;;;;;;18.60;8.70;;;22.80;99.30;;;;;;5042200;28;20040;-76
2023/10/12 12:23:05;;;;;;;17.88;8.45;;;23.00;98.30;;;;;;5041513;28;20021;-75
2023/10/12 12:25:34;;;;;;;31.40;8.20;;;22.60;98.20;;;;;;5048092;28;20036;-76
2023/10/12 12:28:03;;;;;;;19.15;8.60;;;22.60;98.80;;;;;;5051623;28;20056;-76
2023/10/12 12:30:32;;;;;;;22.50;7.72;;;22.60;98.90;;;;;;5049761;28;20025;-77
2023/10/12 12:33:00;;;;;;;19.30;7.35;;;22.60;99.10;;;;;;5042567;28;20074;-77
2023/10/12 12:35:32;;;;;;;18.08;8.30;;;22.70;98.80;;;;;;5040847;28;20032;-77
2023/10/12 12:38:01;;;;;;;26.75;8.55;;;22.60;98.50;;;;;;5048536;28;20107;-78
2023/10/12 12:40:38;;;;;;;21.50;8.27;;;22.50;99.00;;;;;;5048308;28;20086;-75
2023/10/12 12:43:07;;;;;;;15.88;8.13;;;22.70;99.10;;;;;;5044441;28;20029;-75
2023/10/12 12:45:35;;;;;;;21.23;7.90;;;22.90;99.40;;;;;;5043638;28;20044;-75
2023/10/12 12:48:01;;;;;;;29.88;8.98;;;23.10;98.60;;;;;;5051951;28;20017;-75
2023/10/12 12:50:28;;;;;;;16.02;8.02;;;22.90;98.90;;;;;;5048134;28;20040;-77
2023/10/12 12:52:54;;;;;;;21.23;9.10;;;23.00;99.40;;;;;;5045613;28;20091;-74
2023/10/12 12:55:22;;;;;;;22.08;8.93;;;23.10;98.90;;;;;;5042431;28;20360;-76
2023/10/12 12:57:47;;;;;;;17.52;8.55;;;23.10;99.10;;;;;;5046205;28;20035;-75
2023/10/12 13:00:19;;;;;;;18.75;8.85;;;23.00;98.70;;;;;;5041637;28;20387;-74
2023/10/12 13:02:46;;;;;;;21.13;8.68;;;23.40;98.90;;;;;;5044077;28;20037;-75
2023/10/12 13:05:13;;;;;;;16.27;8.85;;;23.20;98.60;;;;;;5045024;28;20033;-77
2023/10/12 13:07:40;;;;;;;23.63;9.02;;;23.20;98.50;;;;;;5052948;28;20033;-79
2023/10/12 13:10:07;;;;;;;16.77;8.32;;;23.30;98.50;;;;;;5045884;28;20029;-75
2023/10/12 13:12:33;;;;;;;24.77;10.18;;;23.30;98.90;;;;;;5058728;28;20043;-77
2023/10/12 13:15:01;;;;;;;20.38;8.55;;;23.40;98.40;;;;;;5051289;28;20029;-74
2023/10/12 13:17:30;;;;;;;22.67;9.23;;;23.40;99.10;;;;;;5044416;28;20068;-75
2023/10/12 13:19:59;;;;;;;21.45;9.75;;;23.30;98.50;;;;;;5044845;28;20045;-75
2023/10/12 13:22:26;;;;;;;19.30;9.23;;;23.30;98.20;;;;;;5051792;28;20048;-76
2023/10/12 13:24:58;;;;;;;19.80;8.65;;;23.30;98.70;;;;;;5064401;28;20075;-76
2023/10/12 13:27:32;;;;;;;20.17;10.98;;;23.50;98.70;;;;;;5049787;28;20106;-76
2023/10/12 13:30:09;;;;;;;23.40;8.95;;;23.60;98.70;;;;;;5061380;28;20029;-78
2023/10/12 13:32:36;;;;;;;23.15;8.75;;;23.50;98.10;;;;;;5068143;28;20036;-75
2023/10/12 13:35:17;;;;;;;20.13;8.88;;;23.40;98.40;;;;;;5068207;28;20025;-75
2023/10/12 13:37:44;;;;;;;18.42;9.20;;;23.50;98.50;;;;;;5062256;28;20123;-75
2023/10/12 13:40:15;;;;;;;21.67;10.38;;;23.70;98.50;;;;;;5068647;28;20021;-77
2023/10/12 13:42:41;;;;;;;22.05;8.82;;;23.70;98.40;;;;;;5047634;28;20024;-75
2023/10/12 13:45:12;;;;;;;19.08;8.82;;;23.80;98.40;;;;;;5070926;28;20040;-76
2023/10/12 13:47:42;;;;;;;20.95;9.57;;;23.90;98.00;;;;;;5067308;28;20036;-76
2023/10/12 13:50:11;;;;;;;22.02;10.57;;;24.10;98.40;;;;;;5062995;28;20040;-75
2023/10/12 13:52:37;;;;;;;16.05;8.35;;;24.00;98.10;;;;;;5065459;28;20459;-75
2023/10/12 13:55:08;;;;;;;20.48;9.63;;;24.00;98.40;;;;;;5060821;28;20079;-76
2023/10/12 13:57:50;;;;;;;17.80;9.55;;;24.00;98.90;;;;;;5056714;28;20058;-75
2023/10/12 14:00:25;;;;;;;19.58;9.30;;;24.00;98.80;;;;;;5057107;28;20054;-75
2023/10/12 14:02:59;;;;;;;18.13;10.02;;;23.90;98.70;;;;;;5050724;28;20025;-80
2023/10/12 14:05:25;;;;;;;;;;;23.90;99.10;;;;;;5054590;28;20036;-79
2023/10/12 14:08:00;;;;;;;19.42;10.32;;;24.10;98.90;;;;;;5066451;28;19916;-75
2023/10/12 14:10:29;;;;;;;17.10;11.32;;;24.10;99.30;;;;;;5071597;28;20013;-74
2023/10/12 14:12:56;;;;;;;29.48;13.85;;;24.30;99.50;;;;;;5067140;28;20528;-77
2023/10/12 14:15:27;;;;;;;19.98;11.48;;;24.30;99.00;;;;;;5069770;28;20595;-76
2023/10/12 14:17:56;;;;;;;41.38;12.93;;;24.20;99.10;;;;;;5067209;28;20648;-77
2023/10/12 14:20:26;;;;;;;28.58;14.75;;;24.30;99.20;;;;;;5067296;28;20316;-75
2023/10/12 14:22:58;;;;;;;22.67;13.25;;;24.30;99.00;;;;;;5061085;28;21042;-76
2023/10/12 14:25:30;;;;;;;27.67;13.30;;;24.20;99.10;;;;;;5050739;28;20032;-76
2023/10/12 14:27:59;;;;;;;24.33;14.25;;;24.20;99.50;;;;;;5046596;28;20035;-76
2023/10/12 14:30:28;;;;;;;30.40;14.73;;;24.20;99.40;;;;;;5045680;28;20029;-74
2023/10/12 14:33:02;;;;;;;26.83;15.45;;;24.10;99.40;;;;;;5046161;28;20062;-76
2023/10/12 14:35:28;;;;;;;;;;;24.00;99.60;;;;;;5052066;28;20428;-75
2023/10/12 14:37:57;;;;;;;26.90;14.65;;;24.00;99.90;;;;;;5061393;28;19919;-75
2023/10/12 14:40:31;;;;;;;33.50;15.45;;;24.00;99.90;;;;;;5065506;28;20028;-75
2023/10/12 14:43:05;;;;;;;34.92;17.27;;;23.90;99.90;;;;;;5066887;28;20377;-74
2023/10/12 14:45:38;;;;;;;38.85;18.40;;;23.90;99.90;;;;;;5069749;28;20029;-75
2023/10/12 14:48:16;;;;;;;32.13;16.95;;;23.80;99.90;;;;;;5066588;28;20029;-77
2023/10/12 14:50:45;;;;;;;27.98;16.42;;;23.80;99.90;;;;;;5064206;28;20820;-75
2023/10/12 14:53:15;;;;;;;35.40;17.75;;;23.80;99.90;;;;;;5064948;28;20131;-75